createdAt,value
2023-04-19T00:00:48.444Z,12.80
2023-04-19T00:01:48.427Z,10.80
2023-04-19T00:02:48.530Z,10.80
2023-04-19T00:03:48.651Z,12.10
2023-04-19T00:04:48.525Z,10.20
2023-04-19T00:05:48.395Z,11.20
2023-04-19T00:06:48.330Z,10.90
2023-04-19T00:07:48.341Z,10.60
2023-04-19T00:08:48.314Z,13.80
2023-04-19T00:09:48.303Z,12.60
2023-04-19T00:10:48.309Z,10.10
2023-04-19T00:11:48.298Z,11.90
2023-04-19T00:12:48.267Z,11.30
2023-04-19T00:13:48.268Z,11.60
2023-04-19T00:14:48.264Z,11.70
2023-04-19T00:15:48.250Z,10.40
2023-04-19T00:16:48.280Z,13.70
2023-04-19T00:17:48.224Z,11.10
2023-04-19T00:18:48.197Z,11.20
2023-04-19T00:19:48.199Z,12.00
2023-04-19T00:20:48.176Z,11.70
2023-04-19T00:21:48.177Z,11.20
2023-04-19T00:22:48.150Z,13.10
2023-04-19T00:23:48.129Z,11.00
2023-04-19T00:24:48.121Z,11.40
2023-04-19T00:25:48.099Z,11.40
2023-04-19T00:26:48.097Z,11.00
2023-04-19T00:27:48.106Z,10.30
2023-04-19T00:28:48.083Z,11.90
2023-04-19T00:29:48.061Z,13.70
2023-04-19T00:30:48.117Z,12.20
2023-04-19T00:31:48.073Z,11.70
2023-04-19T00:32:48.040Z,14.80
2023-04-19T00:33:48.012Z,12.40
2023-04-19T00:34:48.048Z,10.80
2023-04-19T00:35:48.012Z,12.10
2023-04-19T00:36:47.988Z,10.70
2023-04-19T00:37:47.997Z,12.30
2023-04-19T00:38:47.978Z,12.10
2023-04-19T00:39:47.937Z,13.80
2023-04-19T00:40:47.922Z,11.70
2023-04-19T00:41:47.946Z,11.50
2023-04-19T00:42:47.940Z,10.60
2023-04-19T00:43:47.885Z,12.00
2023-04-19T00:44:47.887Z,12.10
2023-04-19T00:45:47.890Z,11.20
2023-04-19T00:46:47.860Z,11.30
2023-04-19T00:47:47.898Z,11.00
2023-04-19T00:48:47.843Z,11.20
2023-04-19T00:49:47.898Z,11.40
2023-04-19T00:50:47.804Z,11.00
2023-04-19T00:51:47.807Z,12.20
2023-04-19T00:52:47.797Z,10.80
2023-04-19T00:53:47.774Z,12.40
2023-04-19T00:54:47.785Z,11.50
2023-04-19T00:55:47.743Z,10.20
2023-04-19T00:56:47.771Z,11.10
2023-04-19T00:57:47.721Z,10.90
2023-04-19T00:58:47.726Z,11.10
2023-04-19T00:59:47.719Z,11.90
2023-04-19T01:00:47.718Z,10.80
2023-04-19T01:01:47.673Z,10.70
2023-04-19T01:02:48.106Z,11.30
2023-04-19T01:03:47.815Z,11.30
2023-04-19T01:04:47.667Z,9.40
2023-04-19T01:05:47.629Z,11.60
2023-04-19T01:06:47.705Z,9.80
2023-04-19T01:07:47.608Z,10.50
2023-04-19T01:08:47.626Z,9.90
2023-04-19T01:09:47.571Z,10.40
2023-04-19T01:10:47.589Z,9.10
2023-04-19T01:11:47.582Z,9.60
2023-04-19T01:12:47.575Z,10.30
2023-04-19T01:13:47.535Z,10.80
2023-04-19T01:14:47.525Z,10.30
2023-04-19T01:15:47.559Z,10.50
2023-04-19T01:16:47.498Z,10.20
2023-04-19T01:17:47.529Z,11.70
2023-04-19T01:18:47.479Z,11.20
2023-04-19T01:19:47.463Z,11.30
2023-04-19T01:20:47.446Z,10.40
2023-04-19T01:21:47.439Z,12.20
2023-04-19T01:22:47.447Z,10.80
2023-04-19T01:23:47.417Z,10.40
2023-04-19T01:24:47.400Z,11.40
2023-04-19T01:25:47.417Z,10.70
2023-04-19T01:26:47.377Z,11.20
2023-04-19T01:27:47.380Z,10.70
2023-04-19T01:28:47.407Z,10.80
2023-04-19T01:29:47.367Z,10.90
2023-04-19T01:30:47.325Z,11.70
2023-04-19T01:31:47.337Z,10.60
2023-04-19T01:32:47.373Z,11.10
2023-04-19T01:33:47.306Z,12.30
2023-04-19T01:34:47.284Z,12.30
2023-04-19T01:35:47.278Z,11.90
2023-04-19T01:36:47.283Z,11.60
2023-04-19T01:37:47.251Z,10.90
2023-04-19T01:38:47.252Z,11.40
2023-04-19T01:39:47.210Z,10.60
2023-04-19T01:40:47.203Z,11.30
2023-04-19T01:41:47.231Z,11.00
2023-04-19T01:42:47.217Z,10.60
2023-04-19T01:43:47.194Z,10.10
2023-04-19T01:44:47.194Z,11.60
2023-04-19T01:45:47.180Z,11.60
2023-04-19T01:46:47.188Z,11.30
2023-04-19T01:47:47.202Z,10.80
2023-04-19T01:48:47.121Z,12.10
2023-04-19T01:49:47.109Z,11.60
2023-04-19T01:50:47.117Z,11.70
2023-04-19T01:51:47.084Z,11.00
2023-04-19T01:52:47.074Z,13.80
2023-04-19T01:53:47.060Z,12.70
2023-04-19T01:54:47.038Z,12.80
2023-04-19T01:55:47.035Z,11.60
2023-04-19T01:56:47.044Z,11.10
2023-04-19T01:57:47.022Z,11.90
2023-04-19T01:58:47.031Z,11.60
2023-04-19T01:59:46.999Z,11.70
2023-04-19T02:00:47.155Z,12.30
2023-04-19T02:01:47.010Z,11.70
2023-04-19T02:02:47.045Z,12.20
2023-04-19T02:03:47.231Z,13.40
2023-04-19T02:04:46.923Z,12.90
2023-04-19T02:05:46.912Z,13.20
2023-04-19T02:06:46.905Z,12.70
2023-04-19T02:07:46.901Z,15.10
2023-04-19T02:08:46.884Z,14.40
2023-04-19T02:09:46.881Z,13.20
2023-04-19T02:10:46.892Z,15.20
2023-04-19T02:11:46.832Z,14.40
2023-04-19T02:12:46.851Z,13.30
2023-04-19T02:13:46.832Z,14.10
2023-04-19T02:14:46.819Z,12.40
2023-04-19T02:15:46.798Z,14.00
2023-04-19T02:16:46.848Z,14.70
2023-04-19T02:17:46.807Z,12.90
2023-04-19T02:18:46.918Z,14.10
2023-04-19T02:19:46.793Z,14.50
2023-04-19T02:20:46.728Z,15.70
2023-04-19T02:21:46.717Z,13.50
2023-04-19T02:22:46.723Z,13.30
2023-04-19T02:23:46.704Z,15.30
2023-04-19T02:24:46.704Z,15.90
2023-04-19T02:25:46.688Z,14.50
2023-04-19T02:26:46.658Z,14.40
2023-04-19T02:27:46.652Z,13.10
2023-04-19T02:28:46.686Z,15.40
2023-04-19T02:29:46.647Z,14.20
2023-04-19T02:30:46.610Z,13.90
2023-04-19T02:31:46.714Z,13.10
2023-04-19T02:32:46.677Z,16.40
2023-04-19T02:33:46.597Z,15.00
2023-04-19T02:34:46.630Z,16.50
2023-04-19T02:35:46.550Z,16.00
2023-04-19T02:36:46.537Z,17.30
2023-04-19T02:37:46.565Z,15.00
2023-04-19T02:38:46.515Z,16.30
2023-04-19T02:39:46.506Z,16.90
2023-04-19T02:40:46.507Z,15.00
2023-04-19T02:41:46.486Z,15.00
2023-04-19T02:42:46.492Z,16.50
2023-04-19T02:43:46.483Z,15.30
2023-04-19T02:44:46.455Z,16.80
2023-04-19T02:45:46.438Z,18.20
2023-04-19T02:46:46.420Z,17.10
2023-04-19T02:47:46.441Z,15.40
2023-04-19T02:48:46.422Z,15.60
2023-04-19T02:49:46.394Z,17.00
2023-04-19T02:50:46.396Z,18.10
2023-04-19T02:51:46.362Z,18.60
2023-04-19T02:52:46.350Z,16.50
2023-04-19T02:53:46.345Z,17.20
2023-04-19T02:54:46.365Z,16.80
2023-04-19T02:55:46.318Z,17.30
2023-04-19T02:56:46.343Z,17.70
2023-04-19T02:57:46.301Z,19.10
2023-04-19T02:58:46.291Z,18.80
2023-04-19T02:59:46.301Z,18.10
2023-04-19T03:00:46.267Z,18.60
2023-04-19T03:01:46.308Z,19.70
2023-04-19T03:02:46.280Z,19.40
2023-04-19T03:03:46.284Z,19.60
2023-04-19T03:04:46.239Z,34.10
2023-04-19T03:05:46.209Z,23.40
2023-04-19T03:06:46.183Z,21.70
2023-04-19T03:07:46.169Z,18.60
2023-04-19T03:08:46.184Z,17.80
2023-04-19T03:09:46.176Z,17.30
2023-04-19T03:10:46.161Z,18.10
2023-04-19T03:11:46.141Z,16.80
2023-04-19T03:12:46.121Z,18.60
2023-04-19T03:13:46.163Z,17.30
2023-04-19T03:14:46.084Z,18.10
2023-04-19T03:15:46.128Z,16.90
2023-04-19T03:16:46.108Z,18.40
2023-04-19T03:17:46.084Z,17.90
2023-04-19T03:18:48.040Z,20.30
2023-04-19T03:19:46.043Z,18.40
2023-04-19T03:20:46.017Z,17.40
2023-04-19T03:21:46.007Z,18.30
2023-04-19T03:22:46.007Z,21.10
2023-04-19T03:23:45.956Z,19.50
2023-04-19T03:24:46.016Z,19.40
2023-04-19T03:25:45.947Z,17.70
2023-04-19T03:26:45.960Z,19.40
2023-04-19T03:27:45.920Z,21.00
2023-04-19T03:28:45.924Z,20.20
2023-04-19T03:29:47.779Z,19.20
2023-04-19T03:30:45.909Z,20.40
2023-04-19T03:31:46.000Z,20.40
2023-04-19T03:32:45.935Z,19.30
2023-04-19T03:33:45.847Z,22.30
2023-04-19T03:34:45.865Z,20.20
2023-04-19T03:35:45.816Z,21.10
2023-04-19T03:36:45.829Z,21.10
2023-04-19T03:37:45.790Z,21.50
2023-04-19T03:38:45.791Z,22.80
2023-04-19T03:39:45.786Z,22.80
2023-04-19T03:40:45.766Z,25.10
2023-04-19T03:41:45.766Z,22.40
2023-04-19T03:42:45.726Z,22.10
2023-04-19T03:43:45.742Z,23.30
2023-04-19T03:44:45.719Z,23.80
2023-04-19T03:45:45.729Z,21.90
2023-04-19T03:46:45.760Z,23.20
2023-04-19T03:47:45.746Z,21.70
2023-04-19T03:48:45.679Z,22.40
2023-04-19T03:49:45.677Z,23.70
2023-04-19T03:50:45.655Z,26.40
2023-04-19T03:51:45.616Z,23.80
2023-04-19T03:52:45.610Z,23.10
2023-04-19T03:53:45.620Z,26.90
2023-04-19T03:54:45.623Z,26.40
2023-04-19T03:55:45.610Z,25.40
2023-04-19T03:56:45.557Z,24.20
2023-04-19T03:57:45.542Z,27.70
2023-04-19T03:58:45.532Z,24.50
2023-04-19T03:59:45.550Z,23.10
2023-04-19T04:00:45.561Z,22.70
2023-04-19T04:01:45.518Z,27.10
2023-04-19T04:02:45.761Z,25.30
2023-04-19T04:03:45.649Z,23.30
2023-04-19T04:04:45.620Z,26.80
2023-04-19T04:05:45.470Z,26.30
2023-04-19T04:06:45.481Z,26.80
2023-04-19T04:07:45.440Z,25.60
2023-04-19T04:08:45.447Z,27.20
2023-04-19T04:09:45.423Z,23.60
2023-04-19T04:10:45.393Z,26.50
2023-04-19T04:11:45.412Z,24.80
2023-04-19T04:12:45.382Z,27.10
2023-04-19T04:13:45.351Z,25.10
2023-04-19T04:14:45.352Z,26.20
2023-04-19T04:15:45.335Z,26.00
2023-04-19T04:16:45.370Z,26.00
2023-04-19T04:17:45.368Z,28.20
2023-04-19T04:18:45.290Z,25.90
2023-04-19T04:19:45.314Z,47.00
2023-04-19T04:20:45.268Z,40.70
2023-04-19T04:21:45.287Z,36.00
2023-04-19T04:22:45.260Z,34.30
2023-04-19T04:23:45.286Z,32.30
2023-04-19T04:24:45.259Z,31.50
2023-04-19T04:25:45.261Z,31.10
2023-04-19T04:26:45.216Z,28.00
2023-04-19T04:27:45.185Z,27.30
2023-04-19T04:28:45.184Z,25.80
2023-04-19T04:29:45.162Z,28.70
2023-04-19T04:30:45.177Z,24.30
2023-04-19T04:31:45.210Z,25.80
2023-04-19T04:32:45.151Z,27.00
2023-04-19T04:33:45.159Z,25.70
2023-04-19T04:34:45.127Z,28.10
2023-04-19T04:35:45.142Z,28.30
2023-04-19T04:36:45.102Z,25.10
2023-04-19T04:37:45.089Z,25.50
2023-04-19T04:38:45.078Z,26.80
2023-04-19T04:39:45.063Z,25.00
2023-04-19T04:40:45.084Z,25.80
2023-04-19T04:41:45.051Z,28.00
2023-04-19T04:42:45.037Z,28.60
2023-04-19T04:43:45.022Z,25.20
2023-04-19T04:44:45.022Z,26.60
2023-04-19T04:45:45.016Z,27.10
2023-04-19T04:46:44.992Z,29.60
2023-04-19T04:47:44.992Z,28.50
2023-04-19T04:48:44.945Z,28.00
2023-04-19T04:49:44.945Z,27.50
2023-04-19T04:50:44.933Z,28.40
2023-04-19T04:51:44.921Z,28.40
2023-04-19T04:52:44.920Z,26.20
2023-04-19T04:53:44.893Z,26.10
2023-04-19T04:54:44.885Z,28.90
2023-04-19T04:55:44.882Z,27.70
2023-04-19T04:56:44.874Z,27.00
2023-04-19T04:57:44.883Z,27.70
2023-04-19T04:58:44.828Z,27.10
2023-04-19T04:59:44.842Z,26.50
2023-04-19T05:00:44.804Z,27.10
2023-04-19T05:01:44.858Z,30.20
2023-04-19T05:02:44.885Z,26.40
2023-04-19T05:03:44.803Z,30.70
2023-04-19T05:04:44.910Z,36.40
2023-04-19T05:05:45.302Z,31.70
2023-04-19T05:06:44.731Z,32.50
2023-04-19T05:07:44.739Z,32.70
2023-04-19T05:08:44.729Z,28.40
2023-04-19T05:09:44.710Z,29.00
2023-04-19T05:10:44.678Z,27.50
2023-04-19T05:11:44.728Z,26.70
2023-04-19T05:12:44.692Z,27.00
2023-04-19T05:13:44.737Z,26.90
2023-04-19T05:14:44.648Z,26.90
2023-04-19T05:15:44.686Z,25.90
2023-04-19T05:16:44.743Z,26.40
2023-04-19T05:17:44.668Z,27.00
2023-04-19T05:18:44.587Z,30.30
2023-04-19T05:19:44.593Z,27.90
2023-04-19T05:20:44.567Z,26.10
2023-04-19T05:21:44.584Z,27.90
2023-04-19T05:22:44.558Z,27.70
2023-04-19T05:23:44.560Z,27.90
2023-04-19T05:24:44.526Z,28.80
2023-04-19T05:25:44.526Z,29.10
2023-04-19T05:26:44.529Z,25.40
2023-04-19T05:27:44.476Z,28.20
2023-04-19T05:28:44.497Z,25.70
2023-04-19T05:29:44.466Z,29.20
2023-04-19T05:30:44.452Z,28.30
2023-04-19T05:31:44.496Z,30.00
2023-04-19T05:32:44.440Z,30.40
2023-04-19T05:33:44.413Z,27.90
2023-04-19T05:34:44.420Z,27.30
2023-04-19T05:35:44.376Z,27.10
2023-04-19T05:36:44.368Z,27.00
2023-04-19T05:37:44.360Z,27.70
2023-04-19T05:38:44.356Z,27.40
2023-04-19T05:39:44.784Z,27.50
2023-04-19T05:40:44.323Z,29.00
2023-04-19T05:41:44.313Z,27.70
2023-04-19T05:42:44.313Z,28.30
2023-04-19T05:43:44.307Z,31.70
2023-04-19T05:44:44.316Z,30.80
2023-04-19T05:45:44.298Z,26.40
2023-04-19T05:46:44.248Z,27.10
2023-04-19T05:47:44.264Z,26.90
2023-04-19T05:48:44.240Z,26.00
2023-04-19T05:49:44.242Z,27.10
2023-04-19T05:50:44.191Z,25.50
2023-04-19T05:51:44.190Z,26.40
2023-04-19T05:52:44.230Z,26.30
2023-04-19T05:53:44.201Z,33.20
2023-04-19T05:54:44.198Z,26.30
2023-04-19T05:55:44.137Z,26.70
2023-04-19T05:56:44.119Z,29.40
2023-04-19T05:57:44.137Z,28.50
2023-04-19T05:58:44.104Z,28.20
2023-04-19T05:59:44.140Z,26.00
2023-04-19T06:00:44.082Z,28.90
2023-04-19T06:01:44.199Z,27.40
2023-04-19T06:02:44.271Z,27.00
2023-04-19T06:03:44.248Z,28.30
2023-04-19T06:04:44.271Z,26.80
2023-04-19T06:05:44.100Z,28.80
2023-04-19T06:06:43.993Z,29.80
2023-04-19T06:07:54.560Z,29.00
2023-04-19T06:08:44.003Z,28.60
2023-04-19T06:09:43.992Z,28.80
2023-04-19T06:11:50.909Z,27.50
2023-04-19T06:12:43.969Z,28.40
2023-04-19T06:13:43.968Z,32.90
2023-04-19T06:14:43.922Z,29.10
2023-04-19T06:15:43.928Z,27.20
2023-04-19T06:16:43.897Z,30.90
2023-04-19T06:17:43.955Z,27.90
2023-04-19T06:18:43.847Z,26.30
2023-04-19T06:19:43.897Z,27.20
2023-04-19T06:20:43.821Z,30.50
2023-04-19T06:21:43.814Z,27.90
2023-04-19T06:22:43.798Z,30.60
2023-04-19T06:23:43.832Z,30.30
2023-04-19T06:24:43.817Z,28.20
2023-04-19T06:25:43.766Z,25.90
2023-04-19T06:26:43.794Z,27.30
2023-04-19T06:27:43.739Z,28.20
2023-04-19T06:28:43.730Z,28.80
2023-04-19T06:29:43.744Z,30.20
2023-04-19T06:30:43.727Z,28.60
2023-04-19T06:31:43.706Z,27.30
2023-04-19T06:32:43.748Z,28.20
2023-04-19T06:33:43.686Z,28.40
2023-04-19T06:34:43.673Z,28.20
2023-04-19T06:35:43.644Z,33.90
2023-04-19T06:36:43.626Z,31.30
2023-04-19T06:37:43.613Z,29.00
2023-04-19T06:38:44.125Z,28.10
2023-04-19T06:39:43.643Z,27.80
2023-04-19T06:40:43.590Z,26.90
2023-04-19T06:41:43.566Z,32.90
2023-04-19T06:42:43.555Z,30.60
2023-04-19T06:43:43.537Z,33.00
2023-04-19T06:44:43.571Z,30.30
2023-04-19T06:45:43.569Z,30.90
2023-04-19T06:46:43.493Z,29.50
2023-04-19T06:47:43.572Z,29.40
2023-04-19T06:48:43.463Z,31.00
2023-04-19T06:49:43.461Z,28.60
2023-04-19T06:50:43.467Z,27.70
2023-04-19T06:51:43.439Z,30.20
2023-04-19T06:52:43.437Z,27.90
2023-04-19T06:53:43.440Z,27.40
2023-04-19T06:54:43.395Z,28.20
2023-04-19T06:55:43.415Z,28.90
2023-04-19T06:56:43.371Z,29.10
2023-04-19T06:57:43.392Z,28.90
2023-04-19T06:58:43.344Z,28.30
2023-04-19T06:59:43.350Z,27.80
2023-04-19T07:00:43.347Z,28.10
2023-04-19T07:01:43.510Z,27.90
2023-04-19T07:02:43.454Z,26.30
2023-04-19T07:03:43.454Z,26.90
2023-04-19T07:04:43.386Z,29.20
2023-04-19T07:05:43.314Z,28.50
2023-04-19T07:06:43.286Z,27.50
2023-04-19T07:07:43.257Z,27.40
2023-04-19T07:09:43.250Z,30.80
2023-04-19T07:10:43.205Z,26.20
2023-04-19T07:11:43.193Z,28.60
2023-04-19T07:12:43.174Z,27.30
2023-04-19T07:13:43.185Z,26.80
2023-04-19T07:14:43.192Z,27.80
2023-04-19T07:15:43.204Z,30.00
2023-04-19T07:16:43.134Z,30.90
2023-04-19T07:17:43.142Z,28.80
2023-04-19T07:18:43.101Z,27.50
2023-04-19T07:19:43.125Z,27.00
2023-04-19T07:20:43.102Z,28.80
2023-04-19T07:21:43.077Z,27.00
2023-04-19T07:22:43.067Z,28.40
2023-04-19T07:23:43.053Z,28.90
2023-04-19T07:24:43.034Z,29.70
2023-04-19T07:25:43.041Z,30.50
2023-04-19T07:26:43.022Z,28.40
2023-04-19T07:27:42.993Z,31.20
2023-04-19T07:28:43.010Z,27.80
2023-04-19T07:29:42.994Z,29.10
2023-04-19T07:30:42.992Z,29.50
2023-04-19T07:31:42.990Z,30.30
2023-04-19T07:32:42.974Z,29.90
2023-04-19T07:33:42.914Z,26.20
2023-04-19T07:34:42.900Z,27.30
2023-04-19T07:35:42.909Z,26.80
2023-04-19T07:36:42.904Z,26.50
2023-04-19T07:37:42.911Z,27.40
2023-04-19T07:38:42.850Z,28.70
2023-04-19T07:39:43.051Z,28.50
2023-04-19T07:40:42.835Z,26.90
2023-04-19T07:41:42.828Z,27.10
2023-04-19T07:42:42.811Z,30.60
2023-04-19T07:43:42.820Z,27.80
2023-04-19T07:44:42.785Z,26.30
2023-04-19T07:45:42.805Z,32.10
2023-04-19T07:46:42.848Z,27.90
2023-04-19T07:47:42.798Z,28.40
2023-04-19T07:48:42.757Z,30.20
2023-04-19T07:49:42.741Z,29.30
2023-04-19T07:50:42.740Z,29.30
2023-04-19T07:51:42.707Z,28.80
2023-04-19T07:52:42.714Z,27.80
2023-04-19T07:53:42.721Z,29.00
2023-04-19T07:54:42.666Z,28.30
2023-04-19T07:55:42.656Z,28.00
2023-04-19T07:56:42.627Z,30.10
2023-04-19T07:57:42.850Z,29.60
2023-04-19T07:58:43.856Z,29.40
2023-04-19T07:59:42.604Z,29.30
2023-04-19T08:00:42.592Z,28.60
2023-04-19T08:01:42.713Z,29.70
2023-04-19T08:02:42.820Z,29.90
2023-04-19T08:03:42.783Z,28.20
2023-04-19T08:04:42.933Z,29.30
2023-04-19T08:05:42.652Z,30.10
2023-04-19T08:06:42.525Z,28.30
2023-04-19T08:07:42.540Z,30.50
2023-04-19T08:08:42.526Z,28.00
2023-04-19T08:09:42.502Z,28.10
2023-04-19T08:10:42.474Z,31.90
2023-04-19T08:11:42.473Z,26.40
2023-04-19T08:12:56.996Z,27.30
2023-04-19T08:13:48.433Z,27.20
2023-04-19T08:14:56.415Z,29.20
2023-04-19T08:17:19.192Z,31.70
2023-04-19T08:17:42.807Z,32.10
2023-04-19T08:18:42.389Z,25.00
2023-04-19T08:19:42.355Z,28.60
2023-04-19T08:20:42.336Z,27.80
2023-04-19T08:21:42.365Z,27.60
2023-04-19T08:22:42.341Z,27.60
2023-04-19T08:23:48.200Z,30.00
2023-04-19T08:24:42.308Z,30.90
2023-04-19T08:25:42.277Z,28.90
2023-04-19T08:26:42.270Z,29.40
2023-04-19T08:27:42.256Z,27.60
2023-04-19T08:28:42.267Z,29.90
2023-04-19T08:29:42.260Z,29.70
2023-04-19T08:30:42.221Z,29.70
2023-04-19T08:31:42.248Z,28.10
2023-04-19T08:32:42.237Z,28.90
2023-04-19T08:33:42.196Z,28.10
2023-04-19T08:34:42.217Z,25.90
2023-04-19T08:35:42.206Z,30.30
2023-04-19T08:36:51.583Z,30.40
2023-04-19T08:37:42.144Z,26.80
2023-04-19T08:38:44.722Z,27.40
2023-04-19T08:39:42.128Z,27.20
2023-04-19T08:40:42.108Z,26.40
2023-04-19T08:41:42.097Z,27.40
2023-04-19T08:42:42.121Z,27.40
2023-04-19T08:43:42.077Z,28.50
2023-04-19T08:44:54.306Z,28.00
2023-04-19T08:45:42.075Z,26.30
2023-04-19T08:46:42.037Z,28.20
2023-04-19T08:47:56.263Z,28.30
2023-04-19T08:48:42.064Z,26.10
2023-04-19T08:49:43.357Z,27.40
2023-04-19T08:50:52.464Z,26.90
2023-04-19T08:51:42.004Z,26.90
2023-04-19T08:52:54.196Z,26.80
2023-04-19T08:53:41.952Z,31.30
2023-04-19T08:54:41.946Z,31.80
2023-04-19T08:55:50.983Z,28.70
2023-04-19T08:56:41.920Z,27.70
2023-04-19T08:57:41.913Z,31.40
2023-04-19T08:59:00.384Z,26.20
2023-04-19T08:59:41.881Z,26.40
2023-04-19T09:00:41.856Z,26.30
2023-04-19T09:01:44.499Z,28.50
2023-04-19T09:02:42.009Z,28.80
2023-04-19T09:03:55.250Z,25.30
2023-04-19T09:04:42.118Z,26.10
2023-04-19T09:05:42.058Z,27.60
2023-04-19T09:06:42.029Z,27.00
2023-04-19T09:07:41.772Z,26.10
2023-04-19T09:08:41.762Z,29.10
2023-04-19T09:09:55.458Z,26.00
2023-04-19T09:10:41.741Z,27.30
2023-04-19T09:11:41.745Z,27.70
2023-04-19T09:12:41.718Z,26.30
2023-04-19T09:13:41.696Z,24.10
2023-04-19T09:14:47.446Z,31.30
2023-04-19T09:15:41.917Z,26.60
2023-04-19T09:16:41.656Z,29.90
2023-04-19T09:17:41.683Z,26.50
2023-04-19T09:18:53.373Z,28.90
2023-04-19T09:19:41.628Z,26.90
2023-04-19T09:20:41.643Z,26.50
2023-04-19T09:21:41.606Z,26.30
2023-04-19T09:22:41.629Z,28.20
2023-04-19T09:23:41.607Z,27.90
2023-04-19T09:26:05.879Z,28.40
2023-04-19T09:26:41.565Z,28.80
2023-04-19T09:27:41.529Z,24.90
2023-04-19T09:28:41.533Z,25.40
2023-04-19T09:29:41.502Z,26.60
2023-04-19T09:31:50.488Z,25.90
2023-04-19T09:32:41.619Z,24.70
2023-04-19T09:33:41.478Z,24.50
2023-04-19T09:34:41.448Z,25.80
2023-04-19T09:35:41.431Z,25.40
2023-04-19T09:36:41.461Z,23.80
2023-04-19T09:38:02.097Z,25.60
2023-04-19T09:38:41.403Z,24.70
2023-04-19T09:39:41.436Z,26.20
2023-04-19T09:40:49.140Z,25.00
2023-04-19T09:41:43.236Z,25.90
2023-04-19T09:42:55.531Z,27.90
2023-04-19T09:45:16.850Z,23.90
2023-04-19T09:45:41.342Z,25.10
2023-04-19T09:46:41.381Z,23.90
2023-04-19T09:47:41.380Z,27.50
2023-04-19T09:48:41.321Z,22.90
2023-04-19T09:49:49.076Z,23.50
2023-04-19T09:50:51.493Z,24.20
2023-04-19T09:51:41.304Z,26.20
2023-04-19T09:52:41.281Z,25.50
2023-04-19T09:53:41.259Z,23.90
2023-04-19T09:54:41.227Z,24.70
2023-04-19T09:55:48.935Z,24.50
2023-04-19T09:56:41.233Z,23.40
2023-04-19T09:57:41.176Z,23.30
2023-04-19T09:58:49.464Z,22.90
2023-04-19T09:59:41.168Z,23.70
2023-04-19T10:00:47.973Z,23.80
2023-04-19T10:01:41.260Z,23.70
2023-04-19T10:02:41.184Z,22.70
2023-04-19T10:03:41.422Z,24.90
2023-04-19T10:05:02.656Z,23.50
2023-04-19T10:05:41.198Z,24.00
2023-04-19T10:07:06.791Z,24.10
2023-04-19T10:07:41.123Z,23.20
2023-04-19T10:08:41.920Z,25.60
2023-04-19T10:09:49.670Z,26.90
2023-04-19T10:10:42.446Z,28.30
2023-04-19T10:11:41.524Z,24.80
2023-04-19T10:13:03.917Z,26.10
2023-04-19T10:13:40.991Z,24.70
2023-04-19T10:14:40.971Z,26.90
2023-04-19T10:15:49.992Z,27.10
2023-04-19T10:16:40.991Z,27.10
2023-04-19T10:17:40.951Z,28.20
2023-04-19T10:18:40.923Z,24.80
2023-04-19T10:19:40.922Z,22.90
2023-04-19T10:20:40.927Z,20.90
2023-04-19T10:21:40.920Z,22.60
2023-04-19T10:22:41.518Z,22.40
2023-04-19T10:23:40.914Z,24.40
2023-04-19T10:24:42.801Z,26.70
2023-04-19T10:25:40.863Z,25.30
2023-04-19T10:26:40.848Z,24.20
2023-04-19T10:27:41.112Z,23.70
2023-04-19T10:28:40.849Z,22.70
2023-04-19T10:29:40.817Z,20.70
2023-04-19T10:30:40.840Z,23.30
2023-04-19T10:31:40.798Z,21.20
2023-04-19T10:32:40.836Z,23.30
2023-04-19T10:33:40.749Z,24.50
2023-04-19T10:34:40.732Z,20.80
2023-04-19T10:35:40.698Z,23.00
2023-04-19T10:36:40.693Z,22.90
2023-04-19T10:37:40.698Z,27.00
2023-04-19T10:46:09.558Z,33.70
2023-04-19T10:47:28.385Z,26.70
2023-04-19T10:48:28.647Z,25.70
2023-04-19T10:49:28.612Z,21.40
2023-04-19T10:50:28.572Z,23.70
2023-04-19T10:51:28.581Z,22.30
2023-04-19T10:52:28.574Z,20.60
2023-04-19T10:53:28.533Z,22.60
2023-04-19T10:54:28.544Z,24.70
2023-04-19T10:55:28.521Z,21.70
2023-04-19T10:56:28.770Z,19.40
2023-04-19T10:57:29.740Z,21.50
2023-04-19T10:58:29.656Z,21.30
2023-04-19T10:59:28.816Z,19.20
2023-04-19T11:00:28.580Z,20.40
2023-04-19T11:01:28.517Z,20.40
2023-04-19T11:02:28.624Z,19.80
2023-04-19T11:03:28.530Z,20.30
2023-04-19T11:04:28.703Z,19.30
2023-04-19T11:05:28.398Z,22.10
2023-04-19T11:06:28.417Z,18.90
2023-04-19T11:07:28.370Z,21.70
2023-04-19T11:08:28.355Z,18.70
2023-04-19T11:09:28.360Z,21.40
2023-04-19T11:10:28.351Z,20.20
2023-04-19T11:11:28.328Z,21.10
2023-04-19T11:12:28.309Z,20.60
2023-04-19T11:13:28.320Z,18.50
2023-04-19T11:14:28.321Z,19.80
2023-04-19T11:15:28.304Z,18.90
2023-04-19T11:16:41.974Z,19.10
2023-04-19T11:17:28.448Z,19.20
2023-04-19T11:18:28.276Z,20.60
2023-04-19T11:19:28.265Z,19.60
2023-04-19T11:20:28.213Z,21.10
2023-04-19T11:21:30.422Z,18.30
2023-04-19T11:22:28.204Z,20.30
2023-04-19T11:23:28.191Z,18.90
2023-04-19T11:24:28.184Z,18.70
2023-04-19T11:25:28.175Z,18.80
2023-04-19T11:26:28.143Z,19.90
2023-04-19T11:27:28.134Z,19.70
2023-04-19T11:28:28.135Z,20.10
2023-04-19T11:29:28.128Z,18.60
2023-04-19T11:30:28.122Z,19.70
2023-04-19T11:31:28.203Z,20.50
2023-04-19T11:32:28.087Z,21.60
2023-04-19T11:33:28.059Z,21.60
2023-04-19T11:34:28.074Z,19.90
2023-04-19T11:35:28.028Z,21.00
2023-04-19T11:36:28.057Z,22.00
2023-04-19T11:37:28.025Z,20.40
2023-04-19T11:38:27.993Z,21.20
2023-04-19T11:39:27.980Z,20.90
2023-04-19T11:40:27.989Z,20.80
2023-04-19T11:41:27.964Z,22.70
2023-04-19T11:42:27.942Z,19.10
2023-04-19T11:43:27.959Z,20.30
2023-04-19T11:44:27.924Z,21.90
2023-04-19T11:45:30.342Z,22.70
2023-04-19T11:46:27.989Z,25.00
2023-04-19T11:47:27.923Z,21.70
2023-04-19T11:48:27.864Z,23.90
2023-04-19T11:49:27.921Z,20.70
2023-04-19T11:50:27.947Z,22.20
2023-04-19T11:51:27.844Z,20.20
2023-04-19T11:52:27.857Z,22.30
2023-04-19T11:53:27.841Z,21.70
2023-04-19T11:54:27.807Z,22.20
2023-04-19T11:55:27.802Z,20.80
2023-04-19T11:56:27.838Z,21.20
2023-04-19T11:57:27.792Z,19.60
2023-04-19T11:58:27.771Z,23.50
2023-04-19T11:59:27.747Z,22.50
2023-04-19T12:00:27.744Z,22.50
2023-04-19T12:01:27.811Z,21.90
2023-04-19T12:02:27.834Z,23.00
2023-04-19T12:03:27.841Z,20.80
2023-04-19T12:04:27.852Z,23.10
2023-04-19T12:05:28.025Z,21.30
2023-04-19T12:06:27.672Z,21.90
2023-04-19T12:07:27.644Z,22.00
2023-04-19T12:08:27.633Z,23.70
2023-04-19T12:09:27.648Z,22.60
2023-04-19T12:10:27.634Z,24.70
2023-04-19T12:11:27.617Z,21.80
2023-04-19T12:12:27.729Z,21.20
2023-04-19T12:13:27.582Z,21.10
2023-04-19T12:14:27.553Z,21.70
2023-04-19T12:15:28.770Z,53.90
2023-04-19T12:16:27.702Z,25.70
2023-04-19T12:17:27.580Z,28.70
2023-04-19T12:18:27.583Z,28.70
2023-04-19T12:19:27.512Z,27.30
2023-04-19T12:20:27.488Z,30.60
2023-04-19T12:21:27.504Z,23.00
2023-04-19T12:22:27.450Z,33.40
2023-04-19T12:23:27.444Z,27.60
2023-04-19T12:24:27.464Z,23.70
2023-04-19T12:25:27.436Z,26.00
2023-04-19T12:26:27.414Z,26.40
2023-04-19T12:27:27.393Z,24.50
2023-04-19T12:28:27.386Z,25.40
2023-04-19T12:29:27.387Z,24.80
2023-04-19T12:30:27.385Z,25.30
2023-04-19T12:31:27.389Z,23.50
2023-04-19T12:32:27.500Z,23.70
2023-04-19T12:33:27.320Z,24.60
2023-04-19T12:34:27.296Z,28.10
2023-04-19T12:35:27.298Z,23.90
2023-04-19T12:36:27.320Z,27.90
2023-04-19T12:37:27.264Z,27.00
2023-04-19T12:38:27.254Z,25.30
2023-04-19T12:39:27.264Z,32.70
2023-04-19T12:40:27.272Z,28.80
2023-04-19T12:41:27.209Z,25.70
2023-04-19T12:42:27.227Z,25.10
2023-04-19T12:43:27.191Z,28.20
2023-04-19T12:44:27.187Z,29.90
2023-04-19T12:45:27.175Z,35.20
2023-04-19T12:46:27.229Z,28.60
2023-04-19T12:47:27.181Z,33.60
2023-04-19T12:48:27.153Z,35.40
2023-04-19T12:49:27.129Z,25.90
2023-04-19T12:50:27.121Z,22.60
2023-04-19T12:51:27.105Z,26.20
2023-04-19T12:52:27.089Z,20.80
2023-04-19T12:53:27.129Z,20.30
2023-04-19T12:54:27.054Z,19.00
2023-04-19T12:55:27.065Z,18.60
2023-04-19T12:56:27.070Z,18.10
2023-04-19T12:57:27.020Z,19.70
2023-04-19T12:58:27.046Z,22.30
2023-04-19T12:59:26.986Z,17.20
2023-04-19T13:00:26.987Z,20.30
2023-04-19T13:01:27.032Z,19.70
2023-04-19T13:02:27.198Z,18.00
2023-04-19T13:03:27.076Z,17.00
2023-04-19T13:04:27.133Z,17.70
2023-04-19T13:05:26.996Z,18.50
2023-04-19T13:06:26.900Z,17.80